createdAt,value
2023-05-06T00:01:20.903Z,3.40
2023-05-06T00:03:48.147Z,2.50
2023-05-06T00:06:15.247Z,2.30
2023-05-06T00:08:42.205Z,2.50
2023-05-06T00:11:09.170Z,2.10
2023-05-06T00:13:37.716Z,2.40
2023-05-06T00:16:04.954Z,2.10
2023-05-06T00:18:31.988Z,2.30
2023-05-06T00:20:58.887Z,2.20
2023-05-06T00:23:25.765Z,2.30
2023-05-06T00:25:54.417Z,2.50
2023-05-06T00:28:21.303Z,3.70
2023-05-06T00:30:48.146Z,2.40
2023-05-06T00:33:15.131Z,2.10
2023-05-06T00:35:42.206Z,2.10
2023-05-06T00:38:10.994Z,2.00
2023-05-06T00:40:37.921Z,1.80
2023-05-06T00:43:04.807Z,2.50
2023-05-06T00:45:31.873Z,2.20
2023-05-06T00:47:58.874Z,2.50
2023-05-06T00:50:26.104Z,2.00
2023-05-06T00:52:54.778Z,2.00
2023-05-06T00:55:22.186Z,2.30
2023-05-06T00:57:51.985Z,1.70
2023-05-06T01:00:19.735Z,2.00
2023-05-06T01:02:48.204Z,2.20
2023-05-06T01:05:16.939Z,2.20
2023-05-06T01:08:13.626Z,2.30
2023-05-06T01:10:52.729Z,1.80
2023-05-06T01:13:38.571Z,2.30
2023-05-06T01:16:05.948Z,2.30
2023-05-06T01:18:33.058Z,1.90
2023-05-06T01:21:00.133Z,2.10
2023-05-06T01:23:27.290Z,2.20
2023-05-06T01:25:54.176Z,2.20
2023-05-06T01:28:21.321Z,2.00
2023-05-06T01:31:05.783Z,2.00
2023-05-06T01:33:44.840Z,2.00
2023-05-06T01:36:36.722Z,2.60
2023-05-06T01:39:20.994Z,3.00
2023-05-06T01:41:48.800Z,2.20
2023-05-06T01:44:16.400Z,1.80
2023-05-06T01:46:44.474Z,1.80
2023-05-06T01:49:12.372Z,2.00
2023-05-06T01:51:39.244Z,1.70
2023-05-06T01:54:06.538Z,1.90
2023-05-06T01:56:33.399Z,2.20
2023-05-06T01:59:00.417Z,1.80
2023-05-06T02:01:27.419Z,2.00
2023-05-06T02:03:54.577Z,1.70
2023-05-06T02:06:21.728Z,2.10
2023-05-06T02:08:49.259Z,1.80
2023-05-06T02:11:19.618Z,2.20
2023-05-06T02:13:48.239Z,2.00
2023-05-06T02:16:15.086Z,2.00
2023-05-06T02:18:42.321Z,2.50
2023-05-06T02:21:10.164Z,1.60
2023-05-06T02:23:37.482Z,1.50
2023-05-06T02:26:04.577Z,1.80
2023-05-06T02:28:33.230Z,2.00
2023-05-06T02:31:00.165Z,1.90
2023-05-06T02:33:27.123Z,1.40
2023-05-06T02:35:53.982Z,1.60
2023-05-06T02:38:21.310Z,2.30
2023-05-06T02:40:48.203Z,1.90
2023-05-06T02:43:15.168Z,1.70
2023-05-06T02:45:42.168Z,1.90
2023-05-06T02:48:09.029Z,1.70
2023-05-06T02:50:36.899Z,1.50
2023-05-06T02:53:03.957Z,1.60
2023-05-06T02:55:30.861Z,1.70
2023-05-06T02:57:57.850Z,1.70
2023-05-06T03:00:24.838Z,1.40
2023-05-06T03:02:51.807Z,1.80
2023-05-06T03:05:18.999Z,1.20
2023-05-06T03:07:45.932Z,1.70
2023-05-06T03:10:13.456Z,1.60
2023-05-06T03:12:40.742Z,1.70
2023-05-06T03:15:08.772Z,1.60
2023-05-06T03:17:37.871Z,1.50
2023-05-06T03:20:08.390Z,1.60
2023-05-06T03:22:35.967Z,1.60
2023-05-06T03:25:03.376Z,1.70
2023-05-06T03:27:31.074Z,1.70
2023-05-06T03:30:02.110Z,1.60
2023-05-06T03:32:29.520Z,1.80
2023-05-06T03:34:57.763Z,1.80
2023-05-06T03:37:24.722Z,1.70
2023-05-06T03:39:54.280Z,1.80
2023-05-06T03:42:23.048Z,1.70
2023-05-06T03:44:50.195Z,1.60
2023-05-06T03:47:17.756Z,1.70
2023-05-06T03:49:45.183Z,2.00
2023-05-06T03:52:12.823Z,1.70
2023-05-06T03:54:39.694Z,1.70
2023-05-06T03:57:07.519Z,1.50
2023-05-06T03:59:34.598Z,1.60
2023-05-06T04:02:02.377Z,1.70
2023-05-06T04:06:59.265Z,2.90
2023-05-06T04:09:26.209Z,1.50
2023-05-06T04:11:54.522Z,2.10
2023-05-06T04:14:44.153Z,3.10
2023-05-06T04:17:11.097Z,1.60
2023-05-06T04:19:38.285Z,1.90
2023-05-06T04:22:05.203Z,2.00
2023-05-06T04:24:32.235Z,2.00
2023-05-06T04:26:59.669Z,1.50
2023-05-06T04:29:27.724Z,2.10
2023-05-06T04:31:58.492Z,1.70
2023-05-06T04:34:27.936Z,2.00
2023-05-06T04:36:56.641Z,2.20
2023-05-06T04:39:42.749Z,2.10
2023-05-06T04:42:09.692Z,2.20
2023-05-06T04:44:42.975Z,2.00
2023-05-06T04:47:10.086Z,1.80
2023-05-06T04:49:37.293Z,2.30
2023-05-06T04:52:04.590Z,2.60
2023-05-06T04:54:31.511Z,2.00
2023-05-06T04:56:58.516Z,2.20
2023-05-06T04:59:26.348Z,1.30
2023-05-06T05:01:54.036Z,2.00
2023-05-06T05:04:20.941Z,1.90
2023-05-06T05:06:47.834Z,2.00
2023-05-06T05:09:15.429Z,2.40
2023-05-06T05:11:43.684Z,1.60
2023-05-06T05:14:10.579Z,1.60
2023-05-06T05:16:37.726Z,1.90
2023-05-06T05:19:08.910Z,1.70
2023-05-06T05:21:37.160Z,1.70
2023-05-06T05:24:04.828Z,1.70
2023-05-06T05:26:34.019Z,1.90
2023-05-06T05:29:00.925Z,1.60
2023-05-06T05:31:28.084Z,2.10
2023-05-06T05:33:55.514Z,2.00
2023-05-06T05:36:23.541Z,1.60
2023-05-06T05:38:52.745Z,1.70
2023-05-06T05:41:19.792Z,1.90
2023-05-06T05:43:47.109Z,1.60
2023-05-06T05:46:14.630Z,1.80
2023-05-06T05:48:42.194Z,2.00
2023-05-06T05:51:10.859Z,1.90
2023-05-06T05:53:37.986Z,1.80
2023-05-06T05:56:05.641Z,1.40
2023-05-06T05:58:32.531Z,1.90
2023-05-06T06:00:59.630Z,1.60
2023-05-06T06:03:52.022Z,1.70
2023-05-06T06:06:19.280Z,1.90
2023-05-06T06:08:46.614Z,1.60
2023-05-06T06:11:13.920Z,1.70
2023-05-06T06:13:41.255Z,1.70
2023-05-06T06:16:08.371Z,1.80
2023-05-06T06:18:35.657Z,1.90
2023-05-06T06:21:05.778Z,1.40
2023-05-06T06:23:32.674Z,1.70
2023-05-06T06:25:59.769Z,1.40
2023-05-06T06:28:26.942Z,1.90
2023-05-06T06:30:54.104Z,2.10
2023-05-06T06:33:21.072Z,2.10
2023-05-06T06:35:47.940Z,2.00
2023-05-06T06:38:14.807Z,1.50
2023-05-06T06:40:41.797Z,1.60
2023-05-06T06:43:08.667Z,1.60
2023-05-06T06:45:54.416Z,1.80
2023-05-06T06:48:21.619Z,1.60
2023-05-06T06:50:48.482Z,1.40
2023-05-06T06:53:15.506Z,1.40
2023-05-06T06:55:45.707Z,1.40
2023-05-06T06:58:12.600Z,1.40
2023-05-06T07:00:39.708Z,1.60
2023-05-06T07:03:06.887Z,1.80
2023-05-06T07:05:33.970Z,1.70
2023-05-06T07:08:00.921Z,1.50
2023-05-06T07:10:27.849Z,1.80
2023-05-06T07:12:54.777Z,3.80
2023-05-06T07:15:46.934Z,2.30
2023-05-06T07:18:13.999Z,3.00
2023-05-06T07:20:41.084Z,1.90
2023-05-06T07:23:10.092Z,1.50
2023-05-06T07:25:43.293Z,3.80
2023-05-06T07:28:11.387Z,2.40
2023-05-06T07:30:39.093Z,3.60
2023-05-06T07:33:06.134Z,2.70
2023-05-06T07:35:36.933Z,3.60
2023-05-06T07:38:03.800Z,2.90
2023-05-06T07:40:30.805Z,2.10
2023-05-06T07:42:57.735Z,2.50
2023-05-06T07:45:27.749Z,2.10
2023-05-06T07:47:54.737Z,2.40
2023-05-06T07:50:21.751Z,3.50
2023-05-06T07:52:48.642Z,3.80
2023-05-06T07:55:15.600Z,1.60
2023-05-06T07:57:42.510Z,1.70
2023-05-06T08:00:10.294Z,9.80
2023-05-06T08:02:46.957Z,3.20
2023-05-06T08:05:14.734Z,2.00
2023-05-06T08:07:42.425Z,1.80
2023-05-06T08:10:12.511Z,3.10
2023-05-06T08:12:39.828Z,2.30
2023-05-06T08:15:08.047Z,4.90
2023-05-06T08:17:35.258Z,1.90
2023-05-06T08:20:02.167Z,1.80
2023-05-06T08:22:29.032Z,1.50
2023-05-06T08:24:56.409Z,1.80
2023-05-06T08:27:23.289Z,2.30
2023-05-06T08:29:50.178Z,2.30
2023-05-06T08:32:17.129Z,1.50
2023-05-06T08:34:44.142Z,1.40
2023-05-06T08:37:11.213Z,3.30
2023-05-06T08:39:38.466Z,2.00
2023-05-06T08:42:05.611Z,1.80
2023-05-06T08:44:33.735Z,4.10
2023-05-06T08:47:00.757Z,3.50
2023-05-06T08:49:27.928Z,1.70
2023-05-06T08:51:54.841Z,2.00
2023-05-06T08:54:21.713Z,1.90
2023-05-06T08:56:55.450Z,2.00
2023-05-06T08:59:25.933Z,2.10
2023-05-06T09:04:20.505Z,2.00
2023-05-06T09:06:47.393Z,2.10
2023-05-06T09:09:15.075Z,2.70
2023-05-06T09:11:41.978Z,2.30
2023-05-06T09:14:11.209Z,2.70
2023-05-06T09:16:38.487Z,2.80
2023-05-06T09:19:05.927Z,2.30
2023-05-06T09:21:37.080Z,1.70
2023-05-06T09:24:05.404Z,2.20
2023-05-06T09:26:33.316Z,1.80
2023-05-06T09:29:00.439Z,1.60
2023-05-06T09:31:27.670Z,1.60
2023-05-06T09:39:15.096Z,1.60
2023-05-06T09:41:42.076Z,4.50
2023-05-06T09:44:09.041Z,2.50
2023-05-06T09:46:35.875Z,1.80
2023-05-06T09:49:02.798Z,1.30
2023-05-06T09:51:29.720Z,7.90
2023-05-06T09:54:01.085Z,10.50
2023-05-06T09:56:27.924Z,13.70
2023-05-06T09:58:55.478Z,10.60
2023-05-06T10:01:35.500Z,10.20
2023-05-06T10:04:05.199Z,2.50
2023-05-06T10:06:32.882Z,2.10
2023-05-06T10:08:59.724Z,1.70
2023-05-06T10:11:26.571Z,2.60
2023-05-06T10:13:53.389Z,2.70
2023-05-06T10:16:20.236Z,3.80
2023-05-06T10:18:47.201Z,2.20
2023-05-06T10:21:17.438Z,1.50
2023-05-06T10:26:12.210Z,1.80
2023-05-06T10:28:41.151Z,5.40
2023-05-06T10:31:13.081Z,4.00
2023-05-06T10:33:42.419Z,2.70
2023-05-06T10:36:26.054Z,3.00
2023-05-06T10:38:55.058Z,1.40
2023-05-06T10:41:22.459Z,1.50
2023-05-06T10:43:55.941Z,1.50
2023-05-06T10:46:24.063Z,1.60
2023-05-06T10:49:06.534Z,1.60
2023-05-06T10:51:40.647Z,1.50
2023-05-06T10:54:19.897Z,1.40
2023-05-06T10:56:49.946Z,2.80
2023-05-06T10:59:26.788Z,3.00
2023-05-06T11:02:08.073Z,1.80
2023-05-06T11:04:35.070Z,2.40
2023-05-06T11:07:12.888Z,2.10
2023-05-06T11:09:58.424Z,2.80
2023-05-06T11:12:45.054Z,2.60
2023-05-06T11:15:37.849Z,4.20
2023-05-06T11:18:40.853Z,3.30
2023-05-06T11:21:07.893Z,2.60
2023-05-06T11:23:47.147Z,2.00
2023-05-06T11:26:14.170Z,1.80
2023-05-06T11:28:43.680Z,1.70
2023-05-06T11:31:12.531Z,1.90
2023-05-06T11:33:46.507Z,2.90
2023-05-06T11:36:17.879Z,1.90
2023-05-06T11:38:49.763Z,2.10
2023-05-06T11:41:16.900Z,2.50
2023-05-06T11:43:47.685Z,2.80
2023-05-06T11:46:14.628Z,5.60
2023-05-06T11:48:43.505Z,1.60
2023-05-06T11:51:10.360Z,2.10
2023-05-06T11:53:37.242Z,1.80
2023-05-06T11:56:06.247Z,2.00
2023-05-06T11:58:33.267Z,3.50
2023-05-06T12:01:01.241Z,2.80
2023-05-06T12:03:29.526Z,2.30
2023-05-06T12:05:56.768Z,3.10
2023-05-06T12:08:36.605Z,4.40
2023-05-06T12:11:05.206Z,4.30
2023-05-06T12:13:32.102Z,10.70
2023-05-06T12:15:59.809Z,4.80
2023-05-06T12:18:26.855Z,4.20
2023-05-06T12:20:54.770Z,3.10
2023-05-06T12:23:24.890Z,2.90
2023-05-06T12:26:04.951Z,3.00
2023-05-06T12:28:32.722Z,3.70
2023-05-06T12:31:00.829Z,2.00
2023-05-06T12:33:27.850Z,4.20
2023-05-06T12:35:58.439Z,2.50
2023-05-06T12:38:25.320Z,2.20
2023-05-06T12:40:55.476Z,1.90
2023-05-06T12:46:06.020Z,2.40
2023-05-06T12:48:33.022Z,2.10
2023-05-06T12:50:59.950Z,2.10
2023-05-06T12:53:34.306Z,2.30
2023-05-06T12:56:01.155Z,2.10
2023-05-06T12:58:28.021Z,2.20
2023-05-06T13:00:54.856Z,1.90
2023-05-06T13:03:22.048Z,1.90
2023-05-06T13:05:50.554Z,1.90
2023-05-06T13:08:17.442Z,1.80
2023-05-06T13:10:44.314Z,2.60
2023-05-06T13:13:11.406Z,1.70
2023-05-06T13:15:39.123Z,2.00
2023-05-06T13:18:06.096Z,7.30
2023-05-06T13:20:33.036Z,5.20
2023-05-06T13:22:59.951Z,21.70
2023-05-06T13:25:26.878Z,6.80
2023-05-06T13:27:53.778Z,2.60
2023-05-06T13:30:20.692Z,5.00
2023-05-06T13:32:50.745Z,9.10
2023-05-06T13:37:44.405Z,2.70
2023-05-06T13:40:12.328Z,17.50
2023-05-06T13:42:39.758Z,2.30
2023-05-06T13:45:08.486Z,2.10
2023-05-06T13:47:35.386Z,1.50
2023-05-06T13:50:03.925Z,2.00
2023-05-06T13:52:30.774Z,3.00
2023-05-06T13:55:01.054Z,1.50
2023-05-06T13:57:28.228Z,1.80
2023-05-06T13:59:55.126Z,1.90
2023-05-06T14:02:22.044Z,2.90
2023-05-06T14:04:48.876Z,1.80
2023-05-06T14:07:15.758Z,1.30
2023-05-06T14:09:42.584Z,3.30
2023-05-06T14:12:09.571Z,2.60
2023-05-06T14:14:36.570Z,3.60
2023-05-06T14:17:03.435Z,2.70
2023-05-06T14:19:30.358Z,2.50
2023-05-06T14:21:57.311Z,7.30
2023-05-06T14:24:24.202Z,1.90
2023-05-06T14:26:51.257Z,2.00
2023-05-06T14:29:18.485Z,2.70
2023-05-06T14:31:45.364Z,3.30
2023-05-06T14:34:12.291Z,1.80
2023-05-06T14:36:39.329Z,1.60
2023-05-06T14:39:06.222Z,2.50
2023-05-06T14:41:33.139Z,2.00
2023-05-06T14:44:00.037Z,1.60
2023-05-06T14:46:29.425Z,1.80
2023-05-06T14:48:59.821Z,2.10
2023-05-06T14:53:53.461Z,1.90
2023-05-06T14:56:21.258Z,2.60
2023-05-06T14:58:48.422Z,2.10
2023-05-06T15:01:15.366Z,2.20
2023-05-06T15:03:42.396Z,2.00
2023-05-06T15:06:09.365Z,2.20
2023-05-06T15:08:36.393Z,1.70
2023-05-06T15:11:04.458Z,1.60
2023-05-06T15:13:31.418Z,1.80
2023-05-06T15:15:58.223Z,2.00
2023-05-06T15:18:25.155Z,2.60
2023-05-06T15:20:55.305Z,1.80
2023-05-06T15:23:22.513Z,3.10
2023-05-06T15:25:49.314Z,2.20
2023-05-06T15:28:16.172Z,3.00
2023-05-06T15:30:43.116Z,2.20
2023-05-06T15:33:10.222Z,2.20
2023-05-06T15:35:37.104Z,2.00
2023-05-06T15:38:04.098Z,1.60
2023-05-06T15:40:31.369Z,2.00
2023-05-06T15:42:58.746Z,2.80
2023-05-06T15:45:26.172Z,2.30
2023-05-06T15:47:54.482Z,2.20
2023-05-06T15:50:32.521Z,2.00
2023-05-06T15:53:00.209Z,2.70
2023-05-06T15:55:28.141Z,2.60
2023-05-06T15:57:55.190Z,2.20
2023-05-06T16:00:22.505Z,2.20
2023-05-06T16:02:49.648Z,2.80
2023-05-06T16:05:16.886Z,3.70
2023-05-06T16:07:43.961Z,3.40
2023-05-06T16:10:14.499Z,3.50
2023-05-06T16:12:41.689Z,13.00
2023-05-06T16:15:09.138Z,3.40
2023-05-06T16:17:38.159Z,3.60
2023-05-06T16:20:06.765Z,3.30
2023-05-06T16:22:33.788Z,8.80
2023-05-06T16:25:00.811Z,3.80
2023-05-06T16:27:28.994Z,2.60
2023-05-06T16:29:55.892Z,3.90
2023-05-06T16:32:23.556Z,4.60
2023-05-06T16:34:50.911Z,4.10
2023-05-06T16:37:18.525Z,3.50
2023-05-06T16:39:45.515Z,13.80
2023-05-06T16:42:12.477Z,6.00
2023-05-06T16:44:39.394Z,11.70
2023-05-06T16:47:06.377Z,10.30
2023-05-06T16:49:34.016Z,5.60
2023-05-06T16:52:00.948Z,7.20
2023-05-06T16:54:27.970Z,9.10
2023-05-06T16:56:55.151Z,4.70
2023-05-06T16:59:22.688Z,10.50
2023-05-06T17:02:18.298Z,9.20
2023-05-06T17:04:45.243Z,14.30
2023-05-06T17:07:12.338Z,8.00
2023-05-06T17:09:39.353Z,9.70
2023-05-06T17:12:07.611Z,20.70
2023-05-06T17:14:35.795Z,15.00
2023-05-06T17:17:05.389Z,18.50
2023-05-06T17:19:33.682Z,9.10
2023-05-06T17:22:00.830Z,5.00
2023-05-06T17:24:27.940Z,7.50
2023-05-06T17:26:54.925Z,8.20
2023-05-06T17:29:22.491Z,7.00
2023-05-06T17:31:52.687Z,5.50
2023-05-06T17:36:51.619Z,5.00
2023-05-06T17:39:18.673Z,4.10
2023-05-06T17:41:45.769Z,4.90
2023-05-06T17:44:12.836Z,5.70
2023-05-06T17:46:39.999Z,4.70
2023-05-06T17:49:07.028Z,9.30
2023-05-06T17:51:33.950Z,19.00
2023-05-06T17:54:00.878Z,13.50
2023-05-06T17:56:27.910Z,4.60
2023-05-06T17:58:56.603Z,4.90
2023-05-06T18:01:24.155Z,12.50
2023-05-06T18:03:51.218Z,6.90
2023-05-06T18:06:18.782Z,4.10
2023-05-06T18:08:45.978Z,2.70
2023-05-06T18:11:13.034Z,4.40
2023-05-06T18:13:40.025Z,4.10
2023-05-06T18:16:07.248Z,3.60
2023-05-06T18:18:34.424Z,3.30
2023-05-06T18:21:01.736Z,3.20
2023-05-06T18:23:30.136Z,3.20
2023-05-06T18:25:57.268Z,3.50
2023-05-06T18:28:24.398Z,4.60
2023-05-06T18:30:51.414Z,4.20
2023-05-06T18:33:20.416Z,3.90
2023-05-06T18:35:47.447Z,2.80
2023-05-06T18:38:15.421Z,4.40
2023-05-06T18:40:43.932Z,3.30
2023-05-06T18:43:10.989Z,3.70
2023-05-06T18:45:38.025Z,3.80
2023-05-06T18:48:05.584Z,4.00
2023-05-06T18:50:32.773Z,4.20
2023-05-06T18:52:59.697Z,4.00
2023-05-06T18:55:26.818Z,3.30
2023-05-06T18:57:53.929Z,3.00
2023-05-06T19:00:22.591Z,2.60
2023-05-06T19:02:49.628Z,2.60
2023-05-06T19:05:20.814Z,2.60
2023-05-06T19:07:47.796Z,2.90
2023-05-06T19:10:14.909Z,2.20
2023-05-06T19:12:41.939Z,3.00
2023-05-06T19:15:12.339Z,2.30
2023-05-06T19:17:39.639Z,2.60
2023-05-06T19:20:08.258Z,2.40
2023-05-06T19:22:35.206Z,2.50
2023-05-06T19:25:02.194Z,3.10
2023-05-06T19:27:29.101Z,2.70
2023-05-06T19:29:56.657Z,2.80
2023-05-06T19:32:23.772Z,3.30
2023-05-06T19:34:50.820Z,3.00
2023-05-06T19:37:17.809Z,4.10
2023-05-06T19:39:46.498Z,3.60
2023-05-06T19:42:13.404Z,4.00
2023-05-06T19:44:40.487Z,3.20
2023-05-06T19:47:09.392Z,3.20
2023-05-06T19:49:36.364Z,3.00
2023-05-06T19:52:03.321Z,3.30
2023-05-06T19:54:30.492Z,2.60
2023-05-06T19:56:57.537Z,2.80
2023-05-06T19:59:24.479Z,2.60
2023-05-06T20:01:53.419Z,2.80
2023-05-06T20:04:20.621Z,3.30
2023-05-06T20:06:50.525Z,2.80
2023-05-06T20:09:17.607Z,2.50
2023-05-06T20:11:44.601Z,3.30
2023-05-06T20:14:11.488Z,3.30
2023-05-06T20:16:39.074Z,3.50
2023-05-06T20:19:07.916Z,3.90
2023-05-06T20:21:34.943Z,3.90
2023-05-06T20:24:01.849Z,3.60
2023-05-06T20:26:28.778Z,3.80
2023-05-06T20:28:55.840Z,3.60
2023-05-06T20:31:22.844Z,6.00
2023-05-06T20:33:49.926Z,7.40
2023-05-06T20:36:17.273Z,6.00
2023-05-06T20:38:44.238Z,3.80
2023-05-06T20:41:11.281Z,3.90
2023-05-06T20:43:38.324Z,3.90
2023-05-06T20:46:05.890Z,3.70
2023-05-06T20:48:32.987Z,4.00
2023-05-06T20:51:04.379Z,4.10
2023-05-06T20:53:35.808Z,3.30
2023-05-06T20:56:02.786Z,4.50
2023-05-06T20:58:33.255Z,4.20
2023-05-06T21:01:00.175Z,4.20
2023-05-06T21:03:27.333Z,3.80
2023-05-06T21:05:54.512Z,4.60
2023-05-06T21:08:21.452Z,4.40
2023-05-06T21:10:48.406Z,5.70
2023-05-06T21:13:16.009Z,6.20
2023-05-06T21:15:43.161Z,5.60
2023-05-06T21:18:10.322Z,4.60
2023-05-06T21:20:37.386Z,4.90
2023-05-06T21:23:04.576Z,5.00
2023-05-06T21:25:31.466Z,4.00
2023-05-06T21:27:58.443Z,4.50
2023-05-06T21:30:26.003Z,4.40
2023-05-06T21:32:53.153Z,3.60
2023-05-06T21:35:20.351Z,3.30
2023-05-06T21:37:47.190Z,3.70
2023-05-06T21:40:14.073Z,3.90
2023-05-06T21:42:41.065Z,4.10
2023-05-06T21:45:08.533Z,4.50
2023-05-06T21:47:35.864Z,3.40
2023-05-06T21:50:03.493Z,3.70
2023-05-06T21:52:31.075Z,3.70
2023-05-06T21:54:57.920Z,3.20
2023-05-06T21:57:25.310Z,3.20
2023-05-06T21:59:52.540Z,3.80
2023-05-06T22:02:19.523Z,3.70
2023-05-06T22:04:46.635Z,4.20
2023-05-06T22:07:13.501Z,2.90
2023-05-06T22:09:40.450Z,3.20
2023-05-06T22:12:08.779Z,4.50
2023-05-06T22:14:41.092Z,3.10
2023-05-06T22:17:10.750Z,3.80
2023-05-06T22:19:38.605Z,3.30
2023-05-06T22:22:06.043Z,2.70
2023-05-06T22:24:32.925Z,3.50
2023-05-06T22:26:59.780Z,2.50
2023-05-06T22:29:26.815Z,3.00
2023-05-06T22:31:53.759Z,3.20
2023-05-06T22:34:20.882Z,3.50
2023-05-06T22:36:47.934Z,3.20
2023-05-06T22:39:14.850Z,3.40
2023-05-06T22:41:41.682Z,3.50
2023-05-06T22:44:08.570Z,3.20
2023-05-06T22:46:35.481Z,3.10
2023-05-06T22:49:04.716Z,3.30
2023-05-06T22:51:33.333Z,3.00
2023-05-06T22:54:00.628Z,3.90
2023-05-06T22:56:27.579Z,3.30
2023-05-06T22:58:54.597Z,3.30
2023-05-06T23:01:21.603Z,3.60
2023-05-06T23:03:48.760Z,3.20
2023-05-06T23:06:15.646Z,3.00
2023-05-06T23:08:42.663Z,2.70
2023-05-06T23:11:09.542Z,2.80
2023-05-06T23:13:36.583Z,2.50
2023-05-06T23:16:03.975Z,3.00
2023-05-06T23:18:31.027Z,3.40
2023-05-06T23:20:57.921Z,2.60
2023-05-06T23:23:24.898Z,3.50
2023-05-06T23:25:53.414Z,2.80
2023-05-06T23:28:21.048Z,2.60
2023-05-06T23:30:48.066Z,2.80
2023-05-06T23:33:15.104Z,3.10
2023-05-06T23:35:42.026Z,3.20
2023-05-06T23:38:08.912Z,3.00
2023-05-06T23:40:35.892Z,2.70
2023-05-06T23:43:02.841Z,2.70
2023-05-06T23:45:29.775Z,2.60
2023-05-06T23:47:58.908Z,2.60
2023-05-06T23:50:25.798Z,2.50
2023-05-06T23:52:52.669Z,3.00
2023-05-06T23:55:19.706Z,3.30
2023-05-06T23:57:46.532Z,2.90
